createdAt,value
2024-02-03T00:00:18.145Z,15.63
2024-02-03T00:02:46.127Z,15.65
2024-02-03T00:05:14.166Z,14.93
2024-02-03T00:07:42.338Z,16.00
2024-02-03T00:10:11.935Z,16.50
2024-02-03T00:12:40.005Z,15.82
2024-02-03T00:15:08.427Z,17.17
2024-02-03T00:17:36.390Z,16.60
2024-02-03T00:20:04.587Z,16.88
2024-02-03T00:22:32.918Z,16.95
2024-02-03T00:25:02.129Z,17.20
2024-02-03T00:27:31.688Z,16.17
2024-02-03T00:29:59.643Z,16.60
2024-02-03T00:32:33.331Z,17.02
2024-02-03T00:35:01.434Z,17.45
2024-02-03T00:37:29.457Z,17.40
2024-02-03T00:39:58.312Z,17.67
2024-02-03T00:42:26.667Z,16.60
2024-02-03T00:44:56.094Z,17.33
2024-02-03T00:47:24.118Z,16.52
2024-02-03T00:49:52.458Z,15.82
2024-02-03T00:52:20.573Z,14.90
2024-02-03T00:54:48.725Z,14.80
2024-02-03T00:57:16.840Z,14.05
2024-02-03T00:59:44.812Z,13.25
2024-02-03T01:02:14.167Z,14.25
2024-02-03T01:04:43.608Z,12.63
2024-02-03T01:07:11.694Z,13.27
2024-02-03T01:09:39.638Z,13.32
2024-02-03T01:12:08.169Z,13.93
2024-02-03T01:14:36.105Z,14.50
2024-02-03T01:17:05.927Z,13.18
2024-02-03T01:19:35.389Z,13.48
2024-02-03T01:22:03.516Z,13.35
2024-02-03T01:24:31.546Z,13.98
2024-02-03T01:26:59.588Z,13.65
2024-02-03T01:29:29.599Z,14.05
2024-02-03T01:31:57.824Z,13.38
2024-02-03T01:34:26.142Z,12.90
2024-02-03T01:36:55.542Z,13.35
2024-02-03T01:39:23.665Z,13.80
2024-02-03T01:41:51.672Z,14.05
2024-02-03T01:44:19.630Z,13.65
2024-02-03T01:46:48.112Z,13.52
2024-02-03T01:49:16.263Z,13.10
2024-02-03T01:51:44.444Z,13.80
2024-02-03T01:54:13.842Z,15.27
2024-02-03T01:56:44.838Z,14.40
2024-02-03T01:59:13.260Z,14.48
2024-02-03T02:01:41.283Z,15.00
2024-02-03T02:04:09.476Z,14.73
2024-02-03T02:06:37.570Z,13.82
2024-02-03T02:09:04.568Z,14.00
2024-02-03T02:11:33.872Z,14.48
2024-02-03T02:14:01.774Z,13.52
2024-02-03T02:16:30.513Z,14.32
2024-02-03T02:18:58.541Z,14.15
2024-02-03T02:21:27.932Z,13.73
2024-02-03T02:23:58.310Z,14.55
2024-02-03T02:26:26.469Z,14.23
2024-02-03T02:28:54.400Z,15.00
2024-02-03T02:31:22.414Z,14.48
2024-02-03T02:33:50.516Z,14.98
2024-02-03T02:36:18.628Z,14.55
2024-02-03T02:38:47.925Z,14.82
2024-02-03T02:41:15.892Z,14.25
2024-02-03T02:43:43.800Z,13.98
2024-02-03T02:46:12.184Z,14.27
2024-02-03T02:48:40.207Z,15.20
2024-02-03T02:51:09.884Z,15.70
2024-02-03T02:53:37.927Z,15.95
2024-02-03T02:56:07.896Z,16.90
2024-02-03T02:58:35.896Z,17.25
2024-02-03T03:01:05.452Z,16.27
2024-02-03T03:03:33.963Z,16.73
2024-02-03T03:06:02.014Z,16.42
2024-02-03T03:08:29.978Z,15.15
2024-02-03T03:10:57.962Z,14.60
2024-02-03T03:13:27.319Z,14.95
2024-02-03T03:15:55.563Z,14.15
2024-02-03T03:18:23.625Z,14.40
2024-02-03T03:20:51.725Z,14.30
2024-02-03T03:23:19.776Z,13.70
2024-02-03T03:25:47.829Z,13.25
2024-02-03T03:28:15.795Z,13.75
2024-02-03T03:30:45.277Z,13.60
2024-02-03T03:33:13.385Z,13.57
2024-02-03T03:35:41.462Z,13.32
2024-02-03T03:38:09.554Z,13.35
2024-02-03T03:40:37.908Z,13.82
2024-02-03T03:43:06.552Z,14.80
2024-02-03T03:45:35.691Z,14.25
2024-02-03T03:48:05.297Z,13.48
2024-02-03T03:50:33.339Z,13.18
2024-02-03T03:53:01.345Z,13.35
2024-02-03T03:55:29.323Z,13.95
2024-02-03T03:57:57.462Z,14.75
2024-02-03T04:00:25.586Z,13.13
2024-02-03T04:02:53.630Z,13.40
2024-02-03T04:05:22.006Z,13.70
2024-02-03T04:07:50.200Z,13.77
2024-02-03T04:10:18.138Z,14.00
2024-02-03T04:12:46.929Z,13.00
2024-02-03T04:15:15.189Z,12.68
2024-02-03T04:17:43.183Z,12.32
2024-02-03T04:20:11.897Z,12.15
2024-02-03T04:22:41.255Z,11.27
2024-02-03T04:25:09.970Z,10.35
2024-02-03T04:27:38.002Z,10.13
2024-02-03T04:30:21.858Z,10.35
2024-02-03T04:32:52.711Z,10.27
2024-02-03T04:35:20.896Z,8.30
2024-02-03T04:37:50.415Z,8.52
2024-02-03T04:40:18.669Z,7.65
2024-02-03T04:42:46.768Z,7.65
2024-02-03T04:45:14.889Z,7.93
2024-02-03T04:47:42.924Z,8.02
2024-02-03T04:50:11.813Z,7.43
2024-02-03T04:52:40.513Z,7.47
2024-02-03T04:55:10.310Z,6.60
2024-02-03T04:57:38.581Z,6.75
2024-02-03T05:00:09.744Z,6.88
2024-02-03T05:02:38.255Z,5.97
2024-02-03T05:05:09.939Z,5.95
2024-02-03T05:07:37.938Z,6.03
2024-02-03T05:10:06.912Z,5.30
2024-02-03T05:12:36.271Z,5.93
2024-02-03T05:15:05.929Z,4.57
2024-02-03T05:17:34.464Z,4.97
2024-02-03T05:20:02.604Z,5.00
2024-02-03T05:22:30.672Z,4.88
2024-02-03T05:24:58.693Z,4.95
2024-02-03T05:27:26.678Z,4.97
2024-02-03T05:29:56.017Z,4.60
2024-02-03T05:32:23.962Z,5.00
2024-02-03T05:34:51.949Z,5.13
2024-02-03T05:37:19.958Z,4.50
2024-02-03T05:39:48.080Z,4.85
2024-02-03T05:42:16.138Z,5.13
2024-02-03T05:44:44.169Z,4.78
2024-02-03T05:47:13.694Z,4.93
2024-02-03T05:49:42.767Z,4.07
2024-02-03T05:52:10.752Z,4.50
2024-02-03T05:54:38.744Z,5.05
2024-02-03T05:57:06.970Z,4.85
2024-02-03T05:59:38.775Z,4.60
2024-02-03T06:02:15.198Z,5.18
2024-02-03T06:04:43.580Z,5.43
2024-02-03T06:07:11.695Z,5.05
2024-02-03T06:09:39.915Z,5.97
2024-02-03T06:12:08.608Z,5.15
2024-02-03T06:14:36.668Z,5.70
2024-02-03T06:17:04.916Z,5.53
2024-02-03T06:19:34.354Z,5.50
2024-02-03T06:22:02.426Z,5.05
2024-02-03T06:24:30.447Z,5.68
2024-02-03T06:26:58.484Z,5.43
2024-02-03T06:29:26.464Z,6.07
2024-02-03T06:31:54.443Z,5.22
2024-02-03T06:34:22.635Z,5.72
2024-02-03T06:36:52.442Z,5.40
2024-02-03T06:39:20.472Z,5.60
2024-02-03T06:41:48.400Z,4.93
2024-02-03T06:44:16.294Z,5.47
2024-02-03T06:46:44.216Z,5.65
2024-02-03T06:49:12.227Z,4.85
2024-02-03T06:51:40.489Z,6.15
2024-02-03T06:54:09.889Z,5.10
2024-02-03T06:56:37.814Z,4.95
2024-02-03T06:59:05.735Z,5.25
2024-02-03T07:01:33.679Z,5.40
2024-02-03T07:04:01.746Z,5.13
2024-02-03T07:06:29.935Z,5.03
2024-02-03T07:08:57.964Z,4.82
2024-02-03T07:11:27.208Z,4.93
2024-02-03T07:13:55.231Z,4.68
2024-02-03T07:16:23.205Z,4.68
2024-02-03T07:18:51.188Z,4.45
2024-02-03T07:21:19.206Z,5.18
2024-02-03T07:23:47.162Z,4.20
2024-02-03T07:26:15.129Z,4.47
2024-02-03T07:28:44.531Z,4.22
2024-02-03T07:31:12.582Z,4.22
2024-02-03T07:33:40.608Z,4.45
2024-02-03T07:36:09.311Z,4.50
2024-02-03T07:38:37.285Z,4.25
2024-02-03T07:41:05.730Z,4.10
2024-02-03T07:43:33.644Z,4.20
2024-02-03T07:46:03.029Z,4.20
2024-02-03T07:48:31.208Z,4.35
2024-02-03T07:50:59.205Z,3.83
2024-02-03T07:53:27.165Z,3.80
2024-02-03T07:55:55.078Z,3.95
2024-02-03T07:58:23.023Z,3.33
2024-02-03T08:00:51.449Z,3.70
2024-02-03T08:03:20.838Z,3.50
2024-02-03T08:05:48.802Z,3.65
2024-02-03T08:08:16.763Z,3.33
2024-02-03T08:10:44.899Z,3.35
2024-02-03T08:13:12.828Z,3.10
2024-02-03T08:15:40.928Z,3.50
2024-02-03T08:18:09.162Z,3.60
2024-02-03T08:20:40.241Z,3.75
2024-02-03T08:23:08.177Z,3.65
2024-02-03T08:25:36.072Z,3.63
2024-02-03T08:28:04.428Z,3.72
2024-02-03T08:30:32.602Z,3.65
2024-02-03T08:33:00.739Z,3.90
2024-02-03T08:35:28.846Z,3.55
2024-02-03T08:37:58.175Z,3.45
2024-02-03T08:40:26.182Z,3.30
2024-02-03T08:42:54.240Z,3.58
2024-02-03T08:45:22.285Z,3.78
2024-02-03T08:47:50.409Z,3.60
2024-02-03T08:50:18.525Z,3.63
2024-02-03T08:52:47.244Z,3.58
2024-02-03T08:55:17.216Z,3.65
2024-02-03T08:57:45.378Z,3.92
2024-02-03T09:00:14.582Z,3.70
2024-02-03T09:02:42.709Z,3.90
2024-02-03T09:05:11.016Z,3.83
2024-02-03T09:07:39.047Z,3.63
2024-02-03T09:10:07.777Z,3.72
2024-02-03T09:12:37.090Z,4.18
2024-02-03T09:15:07.034Z,4.13
2024-02-03T09:17:35.072Z,3.45
2024-02-03T09:20:03.339Z,3.95
2024-02-03T09:22:31.442Z,3.97
2024-02-03T09:24:59.480Z,4.45
2024-02-03T09:27:27.463Z,5.47
2024-02-03T09:29:57.002Z,3.50
2024-02-03T09:32:30.252Z,3.65
2024-02-03T09:34:58.699Z,3.70
2024-02-03T09:39:58.107Z,3.65
2024-02-03T09:42:26.636Z,4.13
2024-02-03T09:44:56.400Z,3.70
2024-02-03T09:47:24.752Z,3.85
2024-02-03T09:49:52.843Z,3.70
2024-02-03T09:52:21.586Z,3.70
2024-02-03T09:54:50.155Z,3.60
2024-02-03T09:57:18.292Z,3.70
2024-02-03T09:59:51.862Z,3.83
2024-02-03T10:02:23.574Z,3.85
2024-02-03T10:04:51.621Z,3.95
2024-02-03T10:07:20.260Z,3.72
2024-02-03T10:12:22.255Z,3.25
2024-02-03T10:15:01.374Z,3.60
2024-02-03T10:17:30.839Z,3.47
2024-02-03T10:19:59.210Z,3.70
2024-02-03T10:22:28.140Z,3.35
2024-02-03T10:24:59.896Z,3.55
2024-02-03T10:27:27.907Z,3.67
2024-02-03T10:29:56.756Z,3.60
2024-02-03T10:32:25.029Z,3.58
2024-02-03T10:34:54.864Z,3.70
2024-02-03T10:37:22.965Z,3.60
2024-02-03T10:39:51.437Z,3.80
2024-02-03T10:42:22.984Z,3.67
2024-02-03T10:44:50.794Z,3.38
2024-02-03T10:47:22.952Z,3.17
2024-02-03T10:49:53.290Z,3.40
2024-02-03T10:52:24.971Z,3.40
2024-02-03T10:54:57.225Z,3.33
2024-02-03T10:57:27.490Z,3.15
2024-02-03T11:00:04.673Z,3.22
2024-02-03T11:02:32.676Z,3.40
2024-02-03T11:05:02.615Z,3.40
2024-02-03T11:07:33.085Z,2.83
2024-02-03T11:10:06.143Z,3.22
2024-02-03T11:12:35.484Z,3.28
2024-02-03T11:15:03.651Z,3.33
2024-02-03T11:17:33.044Z,3.10
2024-02-03T11:20:04.898Z,2.95
2024-02-03T11:22:34.538Z,3.42
2024-02-03T11:25:03.968Z,2.92
2024-02-03T11:27:31.979Z,3.00
2024-02-03T11:30:07.206Z,3.33
2024-02-03T11:32:35.225Z,3.00
2024-02-03T11:35:05.471Z,2.80
2024-02-03T11:37:35.026Z,2.58
2024-02-03T11:40:11.550Z,3.00
2024-02-03T11:42:40.369Z,3.13
2024-02-03T11:45:15.233Z,2.92
2024-02-03T11:47:43.905Z,2.70
2024-02-03T11:50:11.930Z,3.08
2024-02-03T11:52:47.714Z,2.78
2024-02-03T11:55:15.920Z,2.80
2024-02-03T11:57:44.217Z,2.85
2024-02-03T12:00:14.573Z,3.08
2024-02-03T12:02:42.964Z,2.55
2024-02-03T12:05:14.289Z,3.40
2024-02-03T12:07:43.808Z,2.67
2024-02-03T12:10:14.279Z,2.22
2024-02-03T12:12:42.583Z,2.40
2024-02-03T12:15:12.217Z,2.60
2024-02-03T12:17:41.012Z,2.13
2024-02-03T12:20:23.957Z,2.60
2024-02-03T12:22:57.033Z,2.78
2024-02-03T12:25:27.444Z,2.50
2024-02-03T12:27:55.986Z,2.38
2024-02-03T12:30:24.617Z,2.45
2024-02-03T12:32:52.741Z,2.30
2024-02-03T12:35:20.637Z,2.20
2024-02-03T12:37:48.633Z,2.45
2024-02-03T12:40:16.706Z,2.35
2024-02-03T12:42:46.104Z,2.42
2024-02-03T12:45:14.127Z,2.15
2024-02-03T12:47:43.581Z,1.95
2024-02-03T12:50:12.522Z,2.20
2024-02-03T12:52:40.726Z,2.60
2024-02-03T12:55:09.284Z,2.30
2024-02-03T12:57:37.348Z,1.75
2024-02-03T13:00:08.706Z,1.98
2024-02-03T13:02:56.007Z,2.00
2024-02-03T13:05:24.542Z,1.85
2024-02-03T13:07:53.775Z,1.58
2024-02-03T13:10:21.773Z,2.13
2024-02-03T13:12:49.888Z,2.20
2024-02-03T13:15:19.585Z,2.15
2024-02-03T13:17:48.612Z,2.28
2024-02-03T13:20:16.731Z,1.85
2024-02-03T13:22:44.886Z,2.50
2024-02-03T13:25:12.921Z,2.13
2024-02-03T13:27:41.124Z,2.55
2024-02-03T13:30:16.063Z,2.08
2024-02-03T13:32:45.650Z,2.03
2024-02-03T13:35:13.950Z,2.33
2024-02-03T13:37:41.996Z,1.90
2024-02-03T13:40:10.867Z,2.13
2024-02-03T13:42:38.896Z,2.17
2024-02-03T13:45:07.985Z,2.33
2024-02-03T13:47:35.892Z,1.98
2024-02-03T13:50:05.768Z,1.90
2024-02-03T13:52:36.961Z,2.85
2024-02-03T13:55:05.576Z,2.17
2024-02-03T13:57:36.344Z,1.80
2024-02-03T14:00:07.516Z,1.83
2024-02-03T14:02:38.521Z,2.15
2024-02-03T14:05:08.816Z,1.77
2024-02-03T14:07:36.832Z,2.20
2024-02-03T14:10:05.301Z,1.90
2024-02-03T14:12:33.399Z,1.55
2024-02-03T14:15:01.829Z,1.58
2024-02-03T14:17:29.740Z,2.20
2024-02-03T14:19:57.735Z,1.55
2024-02-03T14:22:27.108Z,1.90
2024-02-03T14:24:55.156Z,1.77
2024-02-03T14:27:23.645Z,1.80
2024-02-03T14:29:51.671Z,3.30
2024-02-03T14:32:20.517Z,1.90
2024-02-03T14:34:48.711Z,1.70
2024-02-03T14:37:16.805Z,1.55
2024-02-03T14:39:46.336Z,4.28
2024-02-03T14:42:14.401Z,1.90
2024-02-03T14:44:42.368Z,1.67
2024-02-03T14:47:10.419Z,1.90
2024-02-03T14:49:38.679Z,1.70
2024-02-03T14:52:07.487Z,2.10
2024-02-03T14:54:35.545Z,2.10
2024-02-03T14:57:06.363Z,2.30
2024-02-03T14:59:34.629Z,2.30
2024-02-03T15:02:03.109Z,2.00
2024-02-03T15:04:31.126Z,1.92
2024-02-03T15:06:59.468Z,2.15
2024-02-03T15:09:27.900Z,2.10
2024-02-03T15:11:55.965Z,1.90
2024-02-03T15:14:25.372Z,2.17
2024-02-03T15:16:53.307Z,2.40
2024-02-03T15:19:21.521Z,2.08
2024-02-03T15:21:49.841Z,2.40
2024-02-03T15:24:18.568Z,2.30
2024-02-03T15:26:46.581Z,2.28
2024-02-03T15:29:14.815Z,2.20
2024-02-03T15:31:44.263Z,2.22
2024-02-03T15:34:12.343Z,2.47
2024-02-03T15:36:40.494Z,2.35
2024-02-03T15:39:09.496Z,2.70
2024-02-03T15:41:37.497Z,2.40
2024-02-03T15:44:05.708Z,2.30
2024-02-03T15:46:40.630Z,2.75
2024-02-03T15:49:14.648Z,2.58
2024-02-03T15:51:42.867Z,2.47
2024-02-03T15:54:11.007Z,2.90
2024-02-03T15:56:40.784Z,3.05
2024-02-03T15:59:09.582Z,2.85
2024-02-03T16:01:38.405Z,2.85
2024-02-03T16:04:06.646Z,3.00
2024-02-03T16:06:36.333Z,2.78
2024-02-03T16:09:04.560Z,3.10
2024-02-03T16:11:32.597Z,2.90
2024-02-03T16:14:02.050Z,3.90
2024-02-03T16:16:31.014Z,3.33
2024-02-03T16:18:59.441Z,4.40
2024-02-03T16:21:27.508Z,4.13
2024-02-03T16:23:56.901Z,4.20
2024-02-03T16:26:25.714Z,3.53
2024-02-03T16:28:53.872Z,3.72
2024-02-03T16:31:21.955Z,3.70
2024-02-03T16:33:50.256Z,3.10
2024-02-03T16:36:18.379Z,3.80
2024-02-03T16:38:46.405Z,2.92
2024-02-03T16:41:15.783Z,3.10
2024-02-03T16:43:43.848Z,3.28
2024-02-03T16:46:11.785Z,3.30
2024-02-03T16:48:39.768Z,3.47
2024-02-03T16:51:08.275Z,3.55
2024-02-03T16:53:36.232Z,3.22
2024-02-03T16:56:04.631Z,3.33
2024-02-03T16:58:33.936Z,3.60
2024-02-03T17:01:02.055Z,3.78
2024-02-03T17:03:30.227Z,3.60
2024-02-03T17:05:58.328Z,4.00
2024-02-03T17:08:28.712Z,3.65
2024-02-03T17:10:56.796Z,3.35
2024-02-03T17:13:26.557Z,3.70
2024-02-03T17:15:57.499Z,3.17
2024-02-03T17:18:26.371Z,2.95
2024-02-03T17:20:54.566Z,2.95
2024-02-03T17:23:22.534Z,2.55
2024-02-03T17:25:52.894Z,2.80
2024-02-03T17:28:21.012Z,2.83
2024-02-03T17:30:49.064Z,2.72
2024-02-03T17:33:18.694Z,2.72
2024-02-03T17:35:46.719Z,2.65
2024-02-03T17:38:14.781Z,2.60
2024-02-03T17:40:41.705Z,3.00
2024-02-03T17:43:09.738Z,3.42
2024-02-03T17:45:37.838Z,3.00
2024-02-03T17:48:06.085Z,2.97
2024-02-03T17:50:36.432Z,2.80
2024-02-03T17:53:11.205Z,2.90
2024-02-03T17:55:39.417Z,2.92
2024-02-03T17:58:08.973Z,3.10
2024-02-03T18:00:37.172Z,3.22
2024-02-03T18:03:05.847Z,2.60
2024-02-03T18:05:35.914Z,2.78
2024-02-03T18:08:04.137Z,2.72
2024-02-03T18:10:32.145Z,2.85
2024-02-03T18:13:00.270Z,2.60
2024-02-03T18:15:28.373Z,3.00
2024-02-03T18:17:56.500Z,2.72
2024-02-03T18:20:24.548Z,3.10
2024-02-03T18:22:54.064Z,2.65
2024-02-03T18:25:23.577Z,2.83
2024-02-03T18:27:51.948Z,2.50
2024-02-03T18:30:19.995Z,2.78
2024-02-03T18:32:50.938Z,2.70
2024-02-03T18:35:19.215Z,2.70
2024-02-03T18:37:47.185Z,2.90
2024-02-03T18:40:16.558Z,2.78
2024-02-03T18:42:45.064Z,2.70
2024-02-03T18:45:16.216Z,2.40
2024-02-03T18:47:44.292Z,2.80
2024-02-03T18:50:12.412Z,2.88
2024-02-03T18:52:40.507Z,3.08
2024-02-03T18:55:09.056Z,3.10
2024-02-03T18:57:38.740Z,3.03
2024-02-03T19:00:08.487Z,2.92
2024-02-03T19:02:36.771Z,3.42
2024-02-03T19:05:05.096Z,3.10
2024-02-03T19:07:33.254Z,3.15
2024-02-03T19:10:01.858Z,3.03
2024-02-03T19:12:31.002Z,3.00
2024-02-03T19:15:00.531Z,2.70
2024-02-03T19:17:39.173Z,2.78
2024-02-03T19:20:11.242Z,2.95
2024-02-03T19:22:39.490Z,19.90
2024-02-03T19:25:08.970Z,2.90
2024-02-03T19:27:37.018Z,3.00
2024-02-03T19:30:07.540Z,2.88
2024-02-03T19:32:35.829Z,2.60
2024-02-03T19:35:05.173Z,2.53
2024-02-03T19:37:33.313Z,2.70
2024-02-03T19:40:01.956Z,2.90
2024-02-03T19:42:30.509Z,2.38
2024-02-03T19:45:00.322Z,2.70
2024-02-03T19:47:30.096Z,2.50
2024-02-03T19:50:00.074Z,2.75
2024-02-03T19:52:28.507Z,2.80
2024-02-03T19:54:56.668Z,2.65
2024-02-03T19:57:24.700Z,2.53
2024-02-03T19:59:52.922Z,3.22
2024-02-03T20:02:21.008Z,2.70
2024-02-03T20:04:50.410Z,2.88
2024-02-03T20:07:18.839Z,2.70
2024-02-03T20:09:47.218Z,2.58
2024-02-03T20:12:15.772Z,2.05
2024-02-03T20:14:44.106Z,1.92
2024-02-03T20:17:12.159Z,2.10
2024-02-03T20:19:41.469Z,2.10
2024-02-03T20:22:12.876Z,1.80
2024-02-03T20:24:41.055Z,1.80
2024-02-03T20:27:09.014Z,2.10
2024-02-03T20:29:37.432Z,2.20
2024-02-03T20:32:05.742Z,2.00
2024-02-03T20:34:34.068Z,2.30
2024-02-03T20:37:02.520Z,2.40
2024-02-03T20:39:31.902Z,2.58
2024-02-03T20:41:59.895Z,3.17
2024-02-03T20:44:27.855Z,3.28
2024-02-03T20:46:55.925Z,2.80
2024-02-03T20:49:26.746Z,3.20
2024-02-03T20:51:55.072Z,2.80
2024-02-03T20:54:23.337Z,2.58
2024-02-03T20:56:52.662Z,2.90
2024-02-03T20:59:20.740Z,2.85
2024-02-03T21:01:48.918Z,2.83
2024-02-03T21:04:17.413Z,2.90
2024-02-03T21:06:46.441Z,2.90
2024-02-03T21:09:15.966Z,2.75
2024-02-03T21:11:47.087Z,3.00
2024-02-03T21:14:17.061Z,2.90
2024-02-03T21:16:45.586Z,2.83
2024-02-03T21:19:13.718Z,2.60
2024-02-03T21:21:43.249Z,2.90
2024-02-03T21:24:11.521Z,2.70
2024-02-03T21:26:39.539Z,3.17
2024-02-03T21:29:07.623Z,2.38
2024-02-03T21:31:36.981Z,2.60
2024-02-03T21:34:05.326Z,2.53
2024-02-03T21:36:33.608Z,2.58
2024-02-03T21:39:01.570Z,2.83
2024-02-03T21:41:29.598Z,2.40
2024-02-03T21:43:58.912Z,2.50
2024-02-03T21:46:27.037Z,2.47
2024-02-03T21:48:56.554Z,2.28
2024-02-03T21:51:26.709Z,2.40
2024-02-03T21:53:54.672Z,2.40
2024-02-03T21:56:30.080Z,2.47
2024-02-03T21:58:58.507Z,2.40
2024-02-03T22:01:29.606Z,2.47
2024-02-03T22:06:30.067Z,2.35
2024-02-03T22:08:59.717Z,2.13
2024-02-03T22:11:27.901Z,2.10
2024-02-03T22:13:55.966Z,2.20
2024-02-03T22:16:23.989Z,1.95
2024-02-03T22:19:02.503Z,2.20
2024-02-03T22:21:39.957Z,1.92
2024-02-03T22:24:08.215Z,1.92
2024-02-03T22:26:36.210Z,1.58
2024-02-03T22:29:04.182Z,1.90
2024-02-03T22:31:32.970Z,1.73
2024-02-03T22:34:02.434Z,2.30
2024-02-03T22:36:30.613Z,1.67
2024-02-03T22:39:02.802Z,1.60
2024-02-03T22:41:31.117Z,1.42
2024-02-03T22:43:59.166Z,1.63
2024-02-03T22:46:27.185Z,1.40
2024-02-03T22:48:55.699Z,1.58
2024-02-03T22:51:28.933Z,1.60
2024-02-03T22:53:57.089Z,1.50
2024-02-03T22:56:27.726Z,1.63
2024-02-03T22:58:55.957Z,1.30
2024-02-03T23:01:24.440Z,1.50
2024-02-03T23:03:53.550Z,1.13
2024-02-03T23:06:21.839Z,1.50
2024-02-03T23:08:51.270Z,1.40
2024-02-03T23:11:19.486Z,1.77
2024-02-03T23:13:47.584Z,1.20
2024-02-03T23:16:15.896Z,1.35
2024-02-03T23:18:44.223Z,1.25
2024-02-03T23:21:12.605Z,1.20
2024-02-03T23:23:40.770Z,1.40
2024-02-03T23:26:10.826Z,1.50
2024-02-03T23:28:39.278Z,1.20
2024-02-03T23:31:07.563Z,1.33
2024-02-03T23:33:38.053Z,1.20
2024-02-03T23:36:06.996Z,1.25
2024-02-03T23:38:35.038Z,1.17
2024-02-03T23:41:03.095Z,1.00
2024-02-03T23:43:32.861Z,1.20
2024-02-03T23:46:00.964Z,1.55
2024-02-03T23:48:29.320Z,1.10
2024-02-03T23:50:57.466Z,1.13
2024-02-03T23:53:26.965Z,1.00
2024-02-03T23:55:55.164Z,1.00
2024-02-03T23:58:23.691Z,1.10
